sensor_id;sensor_type;location;lat;lon;timestamp;P1;durP1;ratioP1;P2;durP2;ratioP2
83018;SDS011;72834;40.104;18.336;2024-02-21T00:00:28;18.77;;;10.98;;
83018;SDS011;72834;40.104;18.336;2024-02-21T00:02:55;19.05;;;10.43;;
83018;SDS011;72834;40.104;18.336;2024-02-21T00:05:23;18.80;;;9.73;;
83018;SDS011;72834;40.104;18.336;2024-02-21T00:07:49;15.95;;;9.70;;
83018;SDS011;72834;40.104;18.336;2024-02-21T00:10:16;19.50;;;11.15;;
83018;SDS011;72834;40.104;18.336;2024-02-21T00:12:42;17.23;;;10.68;;
83018;SDS011;72834;40.104;18.336;2024-02-21T00:15:08;22.98;;;11.75;;
83018;SDS011;72834;40.104;18.336;2024-02-21T00:17:35;23.75;;;12.63;;
83018;SDS011;72834;40.104;18.336;2024-02-21T00:20:01;20.02;;;11.85;;
83018;SDS011;72834;40.104;18.336;2024-02-21T00:22:27;19.45;;;10.25;;
83018;SDS011;72834;40.104;18.336;2024-02-21T00:24:56;20.42;;;10.57;;
83018;SDS011;72834;40.104;18.336;2024-02-21T00:27:23;22.98;;;10.63;;
83018;SDS011;72834;40.104;18.336;2024-02-21T00:29:50;18.25;;;10.13;;
83018;SDS011;72834;40.104;18.336;2024-02-21T00:32:16;19.42;;;10.65;;
83018;SDS011;72834;40.104;18.336;2024-02-21T00:34:42;19.10;;;11.10;;
83018;SDS011;72834;40.104;18.336;2024-02-21T00:37:09;22.52;;;12.65;;
83018;SDS011;72834;40.104;18.336;2024-02-21T00:39:35;26.05;;;13.35;;
83018;SDS011;72834;40.104;18.336;2024-02-21T00:42:02;27.20;;;13.05;;
83018;SDS011;72834;40.104;18.336;2024-02-21T00:44:29;27.70;;;13.15;;
83018;SDS011;72834;40.104;18.336;2024-02-21T00:46:55;24.65;;;12.95;;
83018;SDS011;72834;40.104;18.336;2024-02-21T00:49:21;25.02;;;12.93;;
83018;SDS011;72834;40.104;18.336;2024-02-21T00:51:47;26.02;;;13.40;;
83018;SDS011;72834;40.104;18.336;2024-02-21T00:54:14;22.95;;;11.70;;
83018;SDS011;72834;40.104;18.336;2024-02-21T00:56:40;24.60;;;12.10;;
83018;SDS011;72834;40.104;18.336;2024-02-21T00:59:06;17.98;;;11.05;;
83018;SDS011;72834;40.104;18.336;2024-02-21T01:01:32;20.67;;;12.02;;
83018;SDS011;72834;40.104;18.336;2024-02-21T01:03:59;21.60;;;12.25;;
83018;SDS011;72834;40.104;18.336;2024-02-21T01:06:25;21.23;;;10.57;;
83018;SDS011;72834;40.104;18.336;2024-02-21T01:08:51;28.67;;;11.15;;
83018;SDS011;72834;40.104;18.336;2024-02-21T01:11:18;23.30;;;12.30;;
83018;SDS011;72834;40.104;18.336;2024-02-21T01:13:44;25.40;;;13.00;;
83018;SDS011;72834;40.104;18.336;2024-02-21T01:16:10;21.88;;;11.60;;
83018;SDS011;72834;40.104;18.336;2024-02-21T01:18:37;22.65;;;12.52;;
83018;SDS011;72834;40.104;18.336;2024-02-21T01:21:05;22.45;;;12.00;;
83018;SDS011;72834;40.104;18.336;2024-02-21T01:23:33;24.80;;;12.70;;
83018;SDS011;72834;40.104;18.336;2024-02-21T01:26:00;25.08;;;13.13;;
83018;SDS011;72834;40.104;18.336;2024-02-21T01:28:26;21.42;;;12.18;;
83018;SDS011;72834;40.104;18.336;2024-02-21T01:30:52;20.35;;;12.43;;
83018;SDS011;72834;40.104;18.336;2024-02-21T01:33:18;23.75;;;11.73;;
83018;SDS011;72834;40.104;18.336;2024-02-21T01:35:45;21.92;;;11.50;;
83018;SDS011;72834;40.104;18.336;2024-02-21T01:38:12;22.13;;;11.80;;
83018;SDS011;72834;40.104;18.336;2024-02-21T01:40:39;21.10;;;12.52;;
83018;SDS011;72834;40.104;18.336;2024-02-21T01:43:14;24.40;;;12.35;;
83018;SDS011;72834;40.104;18.336;2024-02-21T01:45:42;25.63;;;12.70;;
83018;SDS011;72834;40.104;18.336;2024-02-21T01:48:10;28.25;;;14.25;;
83018;SDS011;72834;40.104;18.336;2024-02-21T01:50:36;25.98;;;13.55;;
83018;SDS011;72834;40.104;18.336;2024-02-21T01:53:03;25.48;;;12.23;;
83018;SDS011;72834;40.104;18.336;2024-02-21T01:55:29;22.77;;;12.15;;
83018;SDS011;72834;40.104;18.336;2024-02-21T01:57:55;29.10;;;13.75;;
83018;SDS011;72834;40.104;18.336;2024-02-21T02:02:58;19.58;;;11.73;;
83018;SDS011;72834;40.104;18.336;2024-02-21T02:05:24;20.70;;;11.32;;
83018;SDS011;72834;40.104;18.336;2024-02-21T02:07:51;23.38;;;12.02;;
83018;SDS011;72834;40.104;18.336;2024-02-21T02:10:17;23.50;;;12.60;;
83018;SDS011;72834;40.104;18.336;2024-02-21T02:12:43;21.85;;;12.02;;
83018;SDS011;72834;40.104;18.336;2024-02-21T02:15:09;23.98;;;12.45;;
83018;SDS011;72834;40.104;18.336;2024-02-21T02:17:36;19.58;;;11.50;;
83018;SDS011;72834;40.104;18.336;2024-02-21T02:20:02;24.45;;;11.55;;
83018;SDS011;72834;40.104;18.336;2024-02-21T02:22:30;25.90;;;11.93;;
83018;SDS011;72834;40.104;18.336;2024-02-21T02:25:00;22.95;;;11.90;;
83018;SDS011;72834;40.104;18.336;2024-02-21T02:27:27;22.33;;;12.35;;
83018;SDS011;72834;40.104;18.336;2024-02-21T02:29:53;25.35;;;13.13;;
83018;SDS011;72834;40.104;18.336;2024-02-21T02:32:19;23.80;;;12.75;;
83018;SDS011;72834;40.104;18.336;2024-02-21T02:34:46;23.67;;;12.57;;
83018;SDS011;72834;40.104;18.336;2024-02-21T02:37:12;22.48;;;12.93;;
83018;SDS011;72834;40.104;18.336;2024-02-21T02:39:38;21.83;;;12.00;;
83018;SDS011;72834;40.104;18.336;2024-02-21T02:42:04;23.17;;;12.32;;
83018;SDS011;72834;40.104;18.336;2024-02-21T02:44:30;20.42;;;11.30;;
83018;SDS011;72834;40.104;18.336;2024-02-21T02:46:57;20.63;;;10.98;;
83018;SDS011;72834;40.104;18.336;2024-02-21T02:49:23;20.02;;;10.13;;
83018;SDS011;72834;40.104;18.336;2024-02-21T02:51:50;23.33;;;12.20;;
83018;SDS011;72834;40.104;18.336;2024-02-21T02:54:16;19.73;;;11.55;;
83018;SDS011;72834;40.104;18.336;2024-02-21T02:56:42;22.60;;;12.02;;
83018;SDS011;72834;40.104;18.336;2024-02-21T02:59:09;20.83;;;12.07;;
83018;SDS011;72834;40.104;18.336;2024-02-21T03:01:35;20.33;;;11.88;;
83018;SDS011;72834;40.104;18.336;2024-02-21T03:04:03;23.85;;;12.98;;
83018;SDS011;72834;40.104;18.336;2024-02-21T03:06:29;25.45;;;12.90;;
83018;SDS011;72834;40.104;18.336;2024-02-21T03:08:55;23.65;;;12.30;;
83018;SDS011;72834;40.104;18.336;2024-02-21T03:11:21;23.52;;;12.18;;
83018;SDS011;72834;40.104;18.336;2024-02-21T03:13:55;22.05;;;11.30;;
83018;SDS011;72834;40.104;18.336;2024-02-21T03:16:22;21.75;;;11.00;;
83018;SDS011;72834;40.104;18.336;2024-02-21T03:18:48;21.88;;;10.68;;
83018;SDS011;72834;40.104;18.336;2024-02-21T03:21:15;19.02;;;10.52;;
83018;SDS011;72834;40.104;18.336;2024-02-21T03:23:41;18.80;;;10.35;;
83018;SDS011;72834;40.104;18.336;2024-02-21T03:26:07;19.48;;;10.80;;
83018;SDS011;72834;40.104;18.336;2024-02-21T03:28:33;21.13;;;11.43;;
83018;SDS011;72834;40.104;18.336;2024-02-21T03:31:00;18.85;;;9.85;;
83018;SDS011;72834;40.104;18.336;2024-02-21T03:33:26;17.60;;;9.88;;
83018;SDS011;72834;40.104;18.336;2024-02-21T03:35:52;25.17;;;12.20;;
83018;SDS011;72834;40.104;18.336;2024-02-21T03:38:18;26.48;;;14.75;;
83018;SDS011;72834;40.104;18.336;2024-02-21T03:40:45;26.15;;;14.75;;
83018;SDS011;72834;40.104;18.336;2024-02-21T03:43:12;23.60;;;13.88;;
83018;SDS011;72834;40.104;18.336;2024-02-21T03:45:38;27.50;;;14.23;;
83018;SDS011;72834;40.104;18.336;2024-02-21T03:48:05;22.23;;;14.00;;
83018;SDS011;72834;40.104;18.336;2024-02-21T03:50:32;23.23;;;14.02;;
83018;SDS011;72834;40.104;18.336;2024-02-21T03:52:58;22.40;;;13.93;;
83018;SDS011;72834;40.104;18.336;2024-02-21T03:55:24;25.10;;;14.20;;
83018;SDS011;72834;40.104;18.336;2024-02-21T03:57:51;23.80;;;14.60;;
83018;SDS011;72834;40.104;18.336;2024-02-21T04:00:17;23.90;;;14.75;;
83018;SDS011;72834;40.104;18.336;2024-02-21T04:02:43;24.05;;;14.48;;
83018;SDS011;72834;40.104;18.336;2024-02-21T04:05:10;27.42;;;15.50;;
83018;SDS011;72834;40.104;18.336;2024-02-21T04:07:37;27.60;;;15.52;;
83018;SDS011;72834;40.104;18.336;2024-02-21T04:10:04;30.13;;;15.57;;
83018;SDS011;72834;40.104;18.336;2024-02-21T04:12:30;26.90;;;15.07;;
83018;SDS011;72834;40.104;18.336;2024-02-21T04:14:56;21.98;;;12.80;;
83018;SDS011;72834;40.104;18.336;2024-02-21T04:17:23;27.73;;;15.48;;
83018;SDS011;72834;40.104;18.336;2024-02-21T04:19:49;24.45;;;14.65;;
83018;SDS011;72834;40.104;18.336;2024-02-21T04:22:17;22.42;;;13.88;;
83018;SDS011;72834;40.104;18.336;2024-02-21T04:24:44;24.50;;;13.98;;
83018;SDS011;72834;40.104;18.336;2024-02-21T04:27:10;25.30;;;14.30;;
83018;SDS011;72834;40.104;18.336;2024-02-21T04:29:36;29.50;;;14.85;;
83018;SDS011;72834;40.104;18.336;2024-02-21T04:32:02;24.20;;;13.05;;
83018;SDS011;72834;40.104;18.336;2024-02-21T04:34:30;26.33;;;14.73;;
83018;SDS011;72834;40.104;18.336;2024-02-21T04:36:56;23.77;;;13.02;;
83018;SDS011;72834;40.104;18.336;2024-02-21T04:39:22;21.40;;;11.55;;
83018;SDS011;72834;40.104;18.336;2024-02-21T04:41:48;25.48;;;13.20;;
83018;SDS011;72834;40.104;18.336;2024-02-21T04:44:15;22.10;;;11.88;;
83018;SDS011;72834;40.104;18.336;2024-02-21T04:46:44;20.52;;;12.13;;
83018;SDS011;72834;40.104;18.336;2024-02-21T04:49:10;26.13;;;13.55;;
83018;SDS011;72834;40.104;18.336;2024-02-21T04:51:37;24.73;;;13.65;;
83018;SDS011;72834;40.104;18.336;2024-02-21T04:54:03;24.55;;;13.73;;
83018;SDS011;72834;40.104;18.336;2024-02-21T04:56:29;23.05;;;13.00;;
83018;SDS011;72834;40.104;18.336;2024-02-21T04:58:55;23.75;;;11.60;;
83018;SDS011;72834;40.104;18.336;2024-02-21T05:01:22;21.75;;;12.02;;
83018;SDS011;72834;40.104;18.336;2024-02-21T05:03:48;20.55;;;10.75;;
83018;SDS011;72834;40.104;18.336;2024-02-21T05:06:14;20.75;;;11.45;;
83018;SDS011;72834;40.104;18.336;2024-02-21T05:08:40;21.58;;;12.32;;
83018;SDS011;72834;40.104;18.336;2024-02-21T05:11:07;32.13;;;14.35;;
83018;SDS011;72834;40.104;18.336;2024-02-21T05:13:33;19.70;;;12.70;;
83018;SDS011;72834;40.104;18.336;2024-02-21T05:15:59;30.73;;;15.20;;
83018;SDS011;72834;40.104;18.336;2024-02-21T05:18:27;25.05;;;14.60;;
83018;SDS011;72834;40.104;18.336;2024-02-21T05:20:54;28.30;;;16.00;;
83018;SDS011;72834;40.104;18.336;2024-02-21T05:23:20;26.05;;;14.82;;
83018;SDS011;72834;40.104;18.336;2024-02-21T05:25:46;24.58;;;15.75;;
83018;SDS011;72834;40.104;18.336;2024-02-21T05:28:12;28.38;;;14.13;;
83018;SDS011;72834;40.104;18.336;2024-02-21T05:30:38;23.77;;;13.13;;
83018;SDS011;72834;40.104;18.336;2024-02-21T05:33:06;21.77;;;13.77;;
83018;SDS011;72834;40.104;18.336;2024-02-21T05:35:33;22.05;;;14.30;;
83018;SDS011;72834;40.104;18.336;2024-02-21T05:38:00;25.42;;;14.27;;
83018;SDS011;72834;40.104;18.336;2024-02-21T05:40:27;24.50;;;14.60;;
83018;SDS011;72834;40.104;18.336;2024-02-21T05:42:53;27.48;;;16.77;;
83018;SDS011;72834;40.104;18.336;2024-02-21T05:45:19;42.25;;;21.02;;
83018;SDS011;72834;40.104;18.336;2024-02-21T05:47:45;44.85;;;23.02;;
83018;SDS011;72834;40.104;18.336;2024-02-21T05:50:12;28.70;;;17.65;;
83018;SDS011;72834;40.104;18.336;2024-02-21T05:52:38;31.98;;;20.00;;
83018;SDS011;72834;40.104;18.336;2024-02-21T05:55:06;29.95;;;19.65;;
83018;SDS011;72834;40.104;18.336;2024-02-21T05:57:34;36.75;;;21.05;;
83018;SDS011;72834;40.104;18.336;2024-02-21T06:00:03;38.03;;;21.67;;
83018;SDS011;72834;40.104;18.336;2024-02-21T06:02:37;47.15;;;26.08;;
83018;SDS011;72834;40.104;18.336;2024-02-21T06:05:04;42.85;;;24.88;;
83018;SDS011;72834;40.104;18.336;2024-02-21T06:07:33;36.83;;;21.55;;
83018;SDS011;72834;40.104;18.336;2024-02-21T06:10:03;35.13;;;19.13;;
83018;SDS011;72834;40.104;18.336;2024-02-21T06:12:30;37.05;;;20.45;;
83018;SDS011;72834;40.104;18.336;2024-02-21T06:14:56;39.83;;;20.55;;
83018;SDS011;72834;40.104;18.336;2024-02-21T06:17:22;29.65;;;19.05;;
83018;SDS011;72834;40.104;18.336;2024-02-21T06:19:48;30.95;;;17.33;;
83018;SDS011;72834;40.104;18.336;2024-02-21T06:22:15;29.08;;;17.80;;
83018;SDS011;72834;40.104;18.336;2024-02-21T06:24:41;37.05;;;18.98;;
83018;SDS011;72834;40.104;18.336;2024-02-21T06:27:08;28.23;;;16.98;;
83018;SDS011;72834;40.104;18.336;2024-02-21T06:29:36;25.02;;;13.90;;
83018;SDS011;72834;40.104;18.336;2024-02-21T06:32:03;28.33;;;13.50;;
83018;SDS011;72834;40.104;18.336;2024-02-21T06:34:31;24.83;;;13.00;;
83018;SDS011;72834;40.104;18.336;2024-02-21T06:36:57;24.05;;;13.32;;
83018;SDS011;72834;40.104;18.336;2024-02-21T06:39:23;23.25;;;13.00;;
83018;SDS011;72834;40.104;18.336;2024-02-21T06:41:50;29.77;;;15.48;;
83018;SDS011;72834;40.104;18.336;2024-02-21T06:44:17;27.35;;;14.65;;
83018;SDS011;72834;40.104;18.336;2024-02-21T06:46:43;28.77;;;14.13;;
83018;SDS011;72834;40.104;18.336;2024-02-21T06:49:10;29.52;;;14.82;;
83018;SDS011;72834;40.104;18.336;2024-02-21T06:51:42;28.20;;;14.90;;
83018;SDS011;72834;40.104;18.336;2024-02-21T06:54:08;25.48;;;15.20;;
83018;SDS011;72834;40.104;18.336;2024-02-21T06:56:36;26.70;;;14.40;;
83018;SDS011;72834;40.104;18.336;2024-02-21T06:59:03;26.58;;;13.38;;
83018;SDS011;72834;40.104;18.336;2024-02-21T07:01:29;23.50;;;13.23;;
83018;SDS011;72834;40.104;18.336;2024-02-21T07:03:56;23.30;;;14.05;;
83018;SDS011;72834;40.104;18.336;2024-02-21T07:06:22;23.20;;;12.50;;
83018;SDS011;72834;40.104;18.336;2024-02-21T07:08:49;25.33;;;13.60;;
83018;SDS011;72834;40.104;18.336;2024-02-21T07:11:15;21.98;;;12.00;;
83018;SDS011;72834;40.104;18.336;2024-02-21T07:13:41;25.40;;;13.02;;
83018;SDS011;72834;40.104;18.336;2024-02-21T07:16:07;25.10;;;14.77;;
83018;SDS011;72834;40.104;18.336;2024-02-21T07:18:34;26.42;;;12.77;;
83018;SDS011;72834;40.104;18.336;2024-02-21T07:21:00;22.60;;;12.73;;
83018;SDS011;72834;40.104;18.336;2024-02-21T07:23:26;28.98;;;13.27;;
83018;SDS011;72834;40.104;18.336;2024-02-21T07:25:53;26.48;;;13.85;;
83018;SDS011;72834;40.104;18.336;2024-02-21T07:28:19;25.92;;;13.10;;
83018;SDS011;72834;40.104;18.336;2024-02-21T07:30:45;23.58;;;12.75;;
83018;SDS011;72834;40.104;18.336;2024-02-21T07:33:12;23.67;;;12.63;;
83018;SDS011;72834;40.104;18.336;2024-02-21T07:35:38;24.88;;;12.00;;
83018;SDS011;72834;40.104;18.336;2024-02-21T07:38:07;26.38;;;14.95;;
83018;SDS011;72834;40.104;18.336;2024-02-21T07:40:37;25.60;;;14.63;;
83018;SDS011;72834;40.104;18.336;2024-02-21T07:43:04;27.48;;;14.90;;
83018;SDS011;72834;40.104;18.336;2024-02-21T07:45:30;28.48;;;14.02;;
83018;SDS011;72834;40.104;18.336;2024-02-21T07:47:57;20.13;;;11.55;;
83018;SDS011;72834;40.104;18.336;2024-02-21T07:50:23;19.48;;;11.80;;
83018;SDS011;72834;40.104;18.336;2024-02-21T07:52:49;21.70;;;10.70;;
83018;SDS011;72834;40.104;18.336;2024-02-21T07:55:16;19.15;;;10.48;;
83018;SDS011;72834;40.104;18.336;2024-02-21T07:57:42;23.45;;;10.30;;
83018;SDS011;72834;40.104;18.336;2024-02-21T08:00:08;22.38;;;10.48;;
83018;SDS011;72834;40.104;18.336;2024-02-21T08:02:40;22.98;;;11.50;;
83018;SDS011;72834;40.104;18.336;2024-02-21T08:05:08;17.30;;;9.88;;
83018;SDS011;72834;40.104;18.336;2024-02-21T08:07:34;20.38;;;10.07;;
83018;SDS011;72834;40.104;18.336;2024-02-21T08:10:00;19.60;;;9.52;;
83018;SDS011;72834;40.104;18.336;2024-02-21T08:12:27;17.73;;;8.70;;
83018;SDS011;72834;40.104;18.336;2024-02-21T08:14:53;16.88;;;9.00;;
83018;SDS011;72834;40.104;18.336;2024-02-21T08:17:19;15.10;;;8.77;;
83018;SDS011;72834;40.104;18.336;2024-02-21T08:19:45;16.27;;;8.68;;
83018;SDS011;72834;40.104;18.336;2024-02-21T08:22:12;17.33;;;8.60;;
83018;SDS011;72834;40.104;18.336;2024-02-21T08:24:38;16.80;;;9.00;;
83018;SDS011;72834;40.104;18.336;2024-02-21T08:27:05;15.18;;;8.98;;
83018;SDS011;72834;40.104;18.336;2024-02-21T08:29:31;18.02;;;9.43;;
83018;SDS011;72834;40.104;18.336;2024-02-21T08:31:57;15.00;;;7.72;;
83018;SDS011;72834;40.104;18.336;2024-02-21T08:34:24;12.07;;;6.38;;
83018;SDS011;72834;40.104;18.336;2024-02-21T08:37:03;12.65;;;7.30;;
83018;SDS011;72834;40.104;18.336;2024-02-21T08:40:12;10.77;;;6.25;;
83018;SDS011;72834;40.104;18.336;2024-02-21T08:42:39;15.35;;;7.38;;
83018;SDS011;72834;40.104;18.336;2024-02-21T08:45:06;13.23;;;7.38;;
83018;SDS011;72834;40.104;18.336;2024-02-21T08:47:32;14.20;;;7.55;;
83018;SDS011;72834;40.104;18.336;2024-02-21T08:50:01;11.00;;;6.22;;
83018;SDS011;72834;40.104;18.336;2024-02-21T08:52:28;11.57;;;7.13;;
83018;SDS011;72834;40.104;18.336;2024-02-21T08:54:54;11.68;;;7.35;;
83018;SDS011;72834;40.104;18.336;2024-02-21T08:57:20;11.95;;;6.63;;
83018;SDS011;72834;40.104;18.336;2024-02-21T08:59:47;14.35;;;7.38;;
83018;SDS011;72834;40.104;18.336;2024-02-21T09:02:13;11.20;;;5.97;;
83018;SDS011;72834;40.104;18.336;2024-02-21T09:04:42;11.82;;;6.05;;
83018;SDS011;72834;40.104;18.336;2024-02-21T09:07:09;10.43;;;5.97;;
83018;SDS011;72834;40.104;18.336;2024-02-21T09:09:36;10.30;;;5.43;;
83018;SDS011;72834;40.104;18.336;2024-02-21T09:12:06;11.48;;;5.70;;
83018;SDS011;72834;40.104;18.336;2024-02-21T09:14:33;12.75;;;5.50;;
83018;SDS011;72834;40.104;18.336;2024-02-21T09:17:00;12.07;;;6.40;;
83018;SDS011;72834;40.104;18.336;2024-02-21T09:22:18;10.70;;;5.87;;
83018;SDS011;72834;40.104;18.336;2024-02-21T09:24:44;12.15;;;6.20;;
83018;SDS011;72834;40.104;18.336;2024-02-21T09:27:10;14.60;;;6.03;;
83018;SDS011;72834;40.104;18.336;2024-02-21T09:29:37;11.38;;;6.15;;
83018;SDS011;72834;40.104;18.336;2024-02-21T09:32:04;12.45;;;6.88;;
83018;SDS011;72834;40.104;18.336;2024-02-21T09:34:31;11.95;;;6.10;;
83018;SDS011;72834;40.104;18.336;2024-02-21T09:36:57;11.30;;;6.35;;
83018;SDS011;72834;40.104;18.336;2024-02-21T09:39:23;12.77;;;6.80;;
83018;SDS011;72834;40.104;18.336;2024-02-21T09:41:50;12.40;;;6.85;;
83018;SDS011;72834;40.104;18.336;2024-02-21T09:44:22;9.85;;;5.85;;
83018;SDS011;72834;40.104;18.336;2024-02-21T09:49:30;11.63;;;5.20;;
83018;SDS011;72834;40.104;18.336;2024-02-21T09:52:06;11.60;;;5.82;;
83018;SDS011;72834;40.104;18.336;2024-02-21T09:54:33;13.30;;;6.78;;
83018;SDS011;72834;40.104;18.336;2024-02-21T09:57:00;9.55;;;5.80;;
83018;SDS011;72834;40.104;18.336;2024-02-21T09:59:31;10.10;;;5.25;;
83018;SDS011;72834;40.104;18.336;2024-02-21T10:01:59;9.15;;;5.10;;
83018;SDS011;72834;40.104;18.336;2024-02-21T10:04:26;10.25;;;5.07;;
83018;SDS011;72834;40.104;18.336;2024-02-21T10:06:55;10.00;;;4.93;;
83018;SDS011;72834;40.104;18.336;2024-02-21T10:09:22;10.82;;;5.20;;
83018;SDS011;72834;40.104;18.336;2024-02-21T10:11:49;10.40;;;5.95;;
83018;SDS011;72834;40.104;18.336;2024-02-21T10:14:16;9.82;;;5.45;;
83018;SDS011;72834;40.104;18.336;2024-02-21T10:16:45;9.00;;;4.60;;
83018;SDS011;72834;40.104;18.336;2024-02-21T10:19:18;8.63;;;4.80;;
83018;SDS011;72834;40.104;18.336;2024-02-21T10:22:02;11.50;;;5.20;;
83018;SDS011;72834;40.104;18.336;2024-02-21T10:24:33;12.63;;;5.90;;
83018;SDS011;72834;40.104;18.336;2024-02-21T10:27:06;13.55;;;6.38;;
83018;SDS011;72834;40.104;18.336;2024-02-21T10:29:34;10.25;;;6.50;;
83018;SDS011;72834;40.104;18.336;2024-02-21T10:34:34;14.98;;;6.97;;
83018;SDS011;72834;40.104;18.336;2024-02-21T10:37:02;14.23;;;5.63;;
83018;SDS011;72834;40.104;18.336;2024-02-21T10:39:32;12.90;;;5.82;;
83018;SDS011;72834;40.104;18.336;2024-02-21T10:42:00;11.02;;;5.82;;
83018;SDS011;72834;40.104;18.336;2024-02-21T10:44:30;9.25;;;4.82;;
83018;SDS011;72834;40.104;18.336;2024-02-21T10:46:58;11.30;;;5.03;;
83018;SDS011;72834;40.104;18.336;2024-02-21T10:49:25;13.45;;;6.57;;
83018;SDS011;72834;40.104;18.336;2024-02-21T10:52:14;10.77;;;6.18;;
83018;SDS011;72834;40.104;18.336;2024-02-21T10:54:55;11.73;;;5.90;;
83018;SDS011;72834;40.104;18.336;2024-02-21T10:57:26;10.65;;;5.18;;
83018;SDS011;72834;40.104;18.336;2024-02-21T10:59:53;11.23;;;5.88;;
83018;SDS011;72834;40.104;18.336;2024-02-21T11:02:21;13.77;;;6.05;;
83018;SDS011;72834;40.104;18.336;2024-02-21T11:04:48;11.82;;;5.55;;
83018;SDS011;72834;40.104;18.336;2024-02-21T11:07:18;11.30;;;6.25;;
83018;SDS011;72834;40.104;18.336;2024-02-21T11:09:51;12.88;;;6.47;;
83018;SDS011;72834;40.104;18.336;2024-02-21T11:12:21;12.07;;;5.40;;
83018;SDS011;72834;40.104;18.336;2024-02-21T11:14:48;12.13;;;6.53;;
83018;SDS011;72834;40.104;18.336;2024-02-21T11:17:15;12.32;;;7.03;;
83018;SDS011;72834;40.104;18.336;2024-02-21T11:19:42;12.45;;;6.53;;
83018;SDS011;72834;40.104;18.336;2024-02-21T11:22:15;13.50;;;7.43;;
83018;SDS011;72834;40.104;18.336;2024-02-21T11:24:42;14.88;;;8.02;;
83018;SDS011;72834;40.104;18.336;2024-02-21T11:27:21;14.00;;;7.20;;
83018;SDS011;72834;40.104;18.336;2024-02-21T11:29:55;14.00;;;7.38;;
83018;SDS011;72834;40.104;18.336;2024-02-21T11:32:23;16.60;;;7.43;;
83018;SDS011;72834;40.104;18.336;2024-02-21T11:35:00;14.48;;;7.28;;
83018;SDS011;72834;40.104;18.336;2024-02-21T11:37:32;13.20;;;6.82;;
83018;SDS011;72834;40.104;18.336;2024-02-21T11:39:59;14.30;;;7.05;;
83018;SDS011;72834;40.104;18.336;2024-02-21T11:42:26;15.30;;;6.97;;
83018;SDS011;72834;40.104;18.336;2024-02-21T11:44:54;13.43;;;7.10;;
83018;SDS011;72834;40.104;18.336;2024-02-21T11:47:24;14.68;;;6.88;;
83018;SDS011;72834;40.104;18.336;2024-02-21T11:49:51;13.30;;;6.20;;
83018;SDS011;72834;40.104;18.336;2024-02-21T11:52:23;11.00;;;6.45;;
83018;SDS011;72834;40.104;18.336;2024-02-21T11:54:51;11.93;;;6.45;;
83018;SDS011;72834;40.104;18.336;2024-02-21T11:57:18;12.55;;;6.85;;
83018;SDS011;72834;40.104;18.336;2024-02-21T11:59:45;11.60;;;6.05;;
83018;SDS011;72834;40.104;18.336;2024-02-21T12:02:12;10.48;;;5.88;;
83018;SDS011;72834;40.104;18.336;2024-02-21T12:04:39;11.40;;;5.60;;
83018;SDS011;72834;40.104;18.336;2024-02-21T12:07:06;12.90;;;6.22;;
83018;SDS011;72834;40.104;18.336;2024-02-21T12:09:34;11.43;;;6.13;;
83018;SDS011;72834;40.104;18.336;2024-02-21T12:12:01;9.82;;;5.68;;
83018;SDS011;72834;40.104;18.336;2024-02-21T12:14:32;10.82;;;6.07;;
83018;SDS011;72834;40.104;18.336;2024-02-21T12:17:00;12.38;;;6.43;;
83018;SDS011;72834;40.104;18.336;2024-02-21T12:19:30;11.90;;;6.20;;
83018;SDS011;72834;40.104;18.336;2024-02-21T12:22:00;14.98;;;7.40;;
83018;SDS011;72834;40.104;18.336;2024-02-21T12:24:27;17.17;;;7.07;;
83018;SDS011;72834;40.104;18.336;2024-02-21T12:26:55;12.90;;;7.35;;
83018;SDS011;72834;40.104;18.336;2024-02-21T12:29:25;12.95;;;7.57;;
83018;SDS011;72834;40.104;18.336;2024-02-21T12:31:52;12.20;;;6.88;;
83018;SDS011;72834;40.104;18.336;2024-02-21T12:34:20;11.25;;;5.80;;
83018;SDS011;72834;40.104;18.336;2024-02-21T12:36:47;12.40;;;6.90;;
83018;SDS011;72834;40.104;18.336;2024-02-21T12:39:14;14.30;;;6.63;;
83018;SDS011;72834;40.104;18.336;2024-02-21T12:41:40;13.23;;;6.30;;
83018;SDS011;72834;40.104;18.336;2024-02-21T12:44:10;13.90;;;7.40;;
83018;SDS011;72834;40.104;18.336;2024-02-21T12:46:38;12.65;;;7.40;;
83018;SDS011;72834;40.104;18.336;2024-02-21T12:49:05;14.98;;;7.97;;
83018;SDS011;72834;40.104;18.336;2024-02-21T12:51:33;12.80;;;6.78;;
83018;SDS011;72834;40.104;18.336;2024-02-21T12:54:00;12.82;;;7.03;;
83018;SDS011;72834;40.104;18.336;2024-02-21T12:56:28;13.50;;;7.35;;
83018;SDS011;72834;40.104;18.336;2024-02-21T12:58:57;13.95;;;7.35;;
83018;SDS011;72834;40.104;18.336;2024-02-21T13:01:23;13.48;;;6.55;;
83018;SDS011;72834;40.104;18.336;2024-02-21T13:03:50;12.77;;;7.18;;
83018;SDS011;72834;40.104;18.336;2024-02-21T13:06:16;14.30;;;6.93;;
83018;SDS011;72834;40.104;18.336;2024-02-21T13:08:44;12.40;;;6.82;;
83018;SDS011;72834;40.104;18.336;2024-02-21T13:11:11;14.95;;;7.55;;
83018;SDS011;72834;40.104;18.336;2024-02-21T13:13:38;13.68;;;6.72;;
83018;SDS011;72834;40.104;18.336;2024-02-21T13:16:04;12.85;;;6.57;;
83018;SDS011;72834;40.104;18.336;2024-02-21T13:18:31;13.52;;;7.35;;
83018;SDS011;72834;40.104;18.336;2024-02-21T13:20:58;16.52;;;7.88;;
83018;SDS011;72834;40.104;18.336;2024-02-21T13:23:24;12.23;;;7.18;;
83018;SDS011;72834;40.104;18.336;2024-02-21T13:25:50;11.07;;;6.20;;
83018;SDS011;72834;40.104;18.336;2024-02-21T13:28:17;13.18;;;6.97;;
83018;SDS011;72834;40.104;18.336;2024-02-21T13:30:43;15.57;;;7.95;;
83018;SDS011;72834;40.104;18.336;2024-02-21T13:33:09;17.80;;;8.18;;
83018;SDS011;72834;40.104;18.336;2024-02-21T13:35:35;14.85;;;7.18;;
83018;SDS011;72834;40.104;18.336;2024-02-21T13:38:02;15.88;;;9.05;;
83018;SDS011;72834;40.104;18.336;2024-02-21T13:40:29;15.95;;;7.90;;
83018;SDS011;72834;40.104;18.336;2024-02-21T13:42:55;15.25;;;7.80;;
83018;SDS011;72834;40.104;18.336;2024-02-21T13:45:22;12.65;;;7.30;;
83018;SDS011;72834;40.104;18.336;2024-02-21T13:47:49;14.70;;;7.97;;
83018;SDS011;72834;40.104;18.336;2024-02-21T13:50:15;15.00;;;8.38;;
83018;SDS011;72834;40.104;18.336;2024-02-21T13:52:42;14.13;;;7.72;;
83018;SDS011;72834;40.104;18.336;2024-02-21T13:55:09;15.77;;;8.10;;
83018;SDS011;72834;40.104;18.336;2024-02-21T13:57:38;15.00;;;6.63;;
83018;SDS011;72834;40.104;18.336;2024-02-21T14:00:04;12.90;;;7.07;;
83018;SDS011;72834;40.104;18.336;2024-02-21T14:02:37;14.38;;;8.20;;
83018;SDS011;72834;40.104;18.336;2024-02-21T14:05:04;16.90;;;7.00;;
83018;SDS011;72834;40.104;18.336;2024-02-21T14:07:32;16.88;;;8.02;;
83018;SDS011;72834;40.104;18.336;2024-02-21T14:10:01;16.60;;;7.93;;
83018;SDS011;72834;40.104;18.336;2024-02-21T14:12:28;15.30;;;6.65;;
83018;SDS011;72834;40.104;18.336;2024-02-21T14:14:54;15.63;;;7.35;;
83018;SDS011;72834;40.104;18.336;2024-02-21T14:17:24;21.02;;;8.95;;
83018;SDS011;72834;40.104;18.336;2024-02-21T14:19:50;15.35;;;8.52;;
83018;SDS011;72834;40.104;18.336;2024-02-21T14:22:20;15.15;;;7.78;;
83018;SDS011;72834;40.104;18.336;2024-02-21T14:24:46;15.02;;;7.60;;